sensor_id;sensor_type;location;lat;lon;timestamp;temperature;humidity
65036;DHT22;51603;49.300;8.880;2022-12-18T00:02:16;-7.00;99.90
65036;DHT22;51603;49.300;8.880;2022-12-18T00:04:41;-7.00;99.90
65036;DHT22;51603;49.300;8.880;2022-12-18T00:07:07;-7.20;99.90
65036;DHT22;51603;49.300;8.880;2022-12-18T00:09:33;-7.00;99.90
65036;DHT22;51603;49.300;8.880;2022-12-18T00:11:58;-7.10;99.90
65036;DHT22;51603;49.300;8.880;2022-12-18T00:14:24;-7.00;99.90
65036;DHT22;51603;49.300;8.880;2022-12-18T00:16:49;-7.10;99.90
65036;DHT22;51603;49.300;8.880;2022-12-18T00:19:15;-7.10;99.90
65036;DHT22;51603;49.300;8.880;2022-12-18T00:21:41;-7.10;99.90
65036;DHT22;51603;49.300;8.880;2022-12-18T00:24:08;-7.10;99.90
65036;DHT22;51603;49.300;8.880;2022-12-18T00:26:34;-6.90;99.90
65036;DHT22;51603;49.300;8.880;2022-12-18T00:29:07;-7.10;99.90
65036;DHT22;51603;49.300;8.880;2022-12-18T00:31:33;-7.10;99.90
65036;DHT22;51603;49.300;8.880;2022-12-18T00:33:58;-6.90;99.90
65036;DHT22;51603;49.300;8.880;2022-12-18T00:36:26;-7.10;99.90
65036;DHT22;51603;49.300;8.880;2022-12-18T00:38:56;-7.00;99.90
65036;DHT22;51603;49.300;8.880;2022-12-18T00:41:23;-7.10;99.90
65036;DHT22;51603;49.300;8.880;2022-12-18T00:44:11;-7.00;99.90
65036;DHT22;51603;49.300;8.880;2022-12-18T00:46:37;-7.10;99.90
65036;DHT22;51603;49.300;8.880;2022-12-18T00:49:03;-7.10;99.90
65036;DHT22;51603;49.300;8.880;2022-12-18T00:51:28;-7.20;99.90
65036;DHT22;51603;49.300;8.880;2022-12-18T00:53:54;-7.10;99.90
65036;DHT22;51603;49.300;8.880;2022-12-18T00:56:21;-7.20;99.90
65036;DHT22;51603;49.300;8.880;2022-12-18T00:58:47;-7.20;99.90
65036;DHT22;51603;49.300;8.880;2022-12-18T01:01:12;-7.10;99.90
65036;DHT22;51603;49.300;8.880;2022-12-18T01:03:38;-7.20;99.90
65036;DHT22;51603;49.300;8.880;2022-12-18T01:06:11;-7.20;99.90
65036;DHT22;51603;49.300;8.880;2022-12-18T01:08:37;-7.20;99.90
65036;DHT22;51603;49.300;8.880;2022-12-18T01:11:15;-7.30;99.90
65036;DHT22;51603;49.300;8.880;2022-12-18T01:13:41;-7.30;99.90
65036;DHT22;51603;49.300;8.880;2022-12-18T01:16:08;-7.30;99.90
65036;DHT22;51603;49.300;8.880;2022-12-18T01:18:34;-7.20;99.90
65036;DHT22;51603;49.300;8.880;2022-12-18T01:21:00;-7.20;99.90
65036;DHT22;51603;49.300;8.880;2022-12-18T01:23:25;-7.10;99.90
65036;DHT22;51603;49.300;8.880;2022-12-18T01:25:51;-7.10;99.90
65036;DHT22;51603;49.300;8.880;2022-12-18T01:28:16;-7.10;99.90
65036;DHT22;51603;49.300;8.880;2022-12-18T01:30:42;-7.10;99.90
65036;DHT22;51603;49.300;8.880;2022-12-18T01:33:07;-6.90;99.90
65036;DHT22;51603;49.300;8.880;2022-12-18T01:35:33;-7.00;99.90
65036;DHT22;51603;49.300;8.880;2022-12-18T01:38:04;-7.00;99.90
65036;DHT22;51603;49.300;8.880;2022-12-18T01:40:30;-7.10;99.90
65036;DHT22;51603;49.300;8.880;2022-12-18T01:42:55;-7.00;99.90
65036;DHT22;51603;49.300;8.880;2022-12-18T01:45:28;-7.00;99.90
65036;DHT22;51603;49.300;8.880;2022-12-18T01:48:06;-6.90;99.90
65036;DHT22;51603;49.300;8.880;2022-12-18T01:50:35;-6.90;99.90
65036;DHT22;51603;49.300;8.880;2022-12-18T01:53:19;-7.00;99.90
65036;DHT22;51603;49.300;8.880;2022-12-18T01:55:53;-7.00;99.90
65036;DHT22;51603;49.300;8.880;2022-12-18T01:58:21;-7.00;99.90
65036;DHT22;51603;49.300;8.880;2022-12-18T02:00:48;-7.00;99.90
65036;DHT22;51603;49.300;8.880;2022-12-18T02:03:14;-6.80;99.90
65036;DHT22;51603;49.300;8.880;2022-12-18T02:08:40;-7.00;99.90
65036;DHT22;51603;49.300;8.880;2022-12-18T02:11:14;-7.00;99.90
65036;DHT22;51603;49.300;8.880;2022-12-18T02:13:48;-6.90;99.90
65036;DHT22;51603;49.300;8.880;2022-12-18T02:16:26;-7.00;99.90
65036;DHT22;51603;49.300;8.880;2022-12-18T02:18:59;-6.90;99.90
65036;DHT22;51603;49.300;8.880;2022-12-18T02:21:51;-6.90;99.90
65036;DHT22;51603;49.300;8.880;2022-12-18T02:24:36;-6.90;99.90
65036;DHT22;51603;49.300;8.880;2022-12-18T02:27:05;-6.90;99.90
65036;DHT22;51603;49.300;8.880;2022-12-18T02:29:46;-6.90;99.90
65036;DHT22;51603;49.300;8.880;2022-12-18T02:32:38;-6.90;99.90
65036;DHT22;51603;49.300;8.880;2022-12-18T02:35:04;-6.90;99.90
65036;DHT22;51603;49.300;8.880;2022-12-18T02:37:31;-7.00;99.90
65036;DHT22;51603;49.300;8.880;2022-12-18T02:40:01;-6.90;99.90
65036;DHT22;51603;49.300;8.880;2022-12-18T02:42:28;-6.90;99.90
65036;DHT22;51603;49.300;8.880;2022-12-18T02:44:54;-6.90;99.90
65036;DHT22;51603;49.300;8.880;2022-12-18T02:47:29;-6.90;99.90
65036;DHT22;51603;49.300;8.880;2022-12-18T02:50:05;-6.80;99.90
65036;DHT22;51603;49.300;8.880;2022-12-18T03:01:09;-6.90;99.90
65036;DHT22;51603;49.300;8.880;2022-12-18T03:03:41;-6.90;99.90
65036;DHT22;51603;49.300;8.880;2022-12-18T03:08:48;-6.90;99.90
65036;DHT22;51603;49.300;8.880;2022-12-18T03:11:15;-6.90;99.90
65036;DHT22;51603;49.300;8.880;2022-12-18T03:13:47;-6.90;99.90
65036;DHT22;51603;49.300;8.880;2022-12-18T03:16:20;-6.90;99.90
65036;DHT22;51603;49.300;8.880;2022-12-18T03:18:55;-6.90;99.90
65036;DHT22;51603;49.300;8.880;2022-12-18T03:21:26;-6.90;99.90
65036;DHT22;51603;49.300;8.880;2022-12-18T03:23:53;-6.90;99.90
65036;DHT22;51603;49.300;8.880;2022-12-18T03:26:23;-6.90;99.90
65036;DHT22;51603;49.300;8.880;2022-12-18T03:28:53;-6.90;99.90
65036;DHT22;51603;49.300;8.880;2022-12-18T03:31:23;-6.90;99.90
65036;DHT22;51603;49.300;8.880;2022-12-18T03:33:54;-6.80;99.90
65036;DHT22;51603;49.300;8.880;2022-12-18T03:36:20;-6.80;99.90
65036;DHT22;51603;49.300;8.880;2022-12-18T03:38:46;-6.70;99.90
65036;DHT22;51603;49.300;8.880;2022-12-18T03:41:19;-6.90;99.90
65036;DHT22;51603;49.300;8.880;2022-12-18T03:44:13;-7.00;99.90
65036;DHT22;51603;49.300;8.880;2022-12-18T03:46:58;-7.00;99.90
65036;DHT22;51603;49.300;8.880;2022-12-18T03:52:22;-7.10;99.90
65036;DHT22;51603;49.300;8.880;2022-12-18T03:54:51;-7.20;99.90
65036;DHT22;51603;49.300;8.880;2022-12-18T03:57:22;-7.10;99.90
65036;DHT22;51603;49.300;8.880;2022-12-18T03:59:52;-7.20;99.90
65036;DHT22;51603;49.300;8.880;2022-12-18T04:02:21;-7.20;99.90
65036;DHT22;51603;49.300;8.880;2022-12-18T04:04:50;-7.20;99.90
65036;DHT22;51603;49.300;8.880;2022-12-18T04:07:17;-7.10;99.90
65036;DHT22;51603;49.300;8.880;2022-12-18T04:09:44;-7.00;99.90
65036;DHT22;51603;49.300;8.880;2022-12-18T04:12:11;-7.20;99.90
65036;DHT22;51603;49.300;8.880;2022-12-18T04:14:36;-7.20;99.90
65036;DHT22;51603;49.300;8.880;2022-12-18T04:17:02;-7.00;99.90
65036;DHT22;51603;49.300;8.880;2022-12-18T04:19:28;-7.10;99.90
65036;DHT22;51603;49.300;8.880;2022-12-18T04:21:54;-7.30;99.90
65036;DHT22;51603;49.300;8.880;2022-12-18T04:24:20;-7.30;99.90
65036;DHT22;51603;49.300;8.880;2022-12-18T04:26:45;-7.10;99.90
65036;DHT22;51603;49.300;8.880;2022-12-18T04:29:11;-7.20;99.90
65036;DHT22;51603;49.300;8.880;2022-12-18T04:31:36;-7.20;99.90
65036;DHT22;51603;49.300;8.880;2022-12-18T04:34:02;-7.30;99.90
65036;DHT22;51603;49.300;8.880;2022-12-18T04:36:28;-7.40;99.90
65036;DHT22;51603;49.300;8.880;2022-12-18T04:38:53;-7.40;99.90
65036;DHT22;51603;49.300;8.880;2022-12-18T04:41:19;-7.30;99.90
65036;DHT22;51603;49.300;8.880;2022-12-18T04:43:45;-7.30;99.90
65036;DHT22;51603;49.300;8.880;2022-12-18T04:46:10;-7.30;99.90
65036;DHT22;51603;49.300;8.880;2022-12-18T04:48:36;-7.40;99.90
65036;DHT22;51603;49.300;8.880;2022-12-18T04:51:02;-7.40;99.90
65036;DHT22;51603;49.300;8.880;2022-12-18T04:53:28;-7.30;99.90
65036;DHT22;51603;49.300;8.880;2022-12-18T04:58:29;-7.30;99.90
65036;DHT22;51603;49.300;8.880;2022-12-18T05:00:54;-7.20;99.90
65036;DHT22;51603;49.300;8.880;2022-12-18T05:03:20;-7.40;99.90
65036;DHT22;51603;49.300;8.880;2022-12-18T05:05:48;-7.40;99.90
65036;DHT22;51603;49.300;8.880;2022-12-18T05:08:14;-7.30;99.90
65036;DHT22;51603;49.300;8.880;2022-12-18T05:10:39;-7.40;99.90
65036;DHT22;51603;49.300;8.880;2022-12-18T05:13:05;-7.40;99.90
65036;DHT22;51603;49.300;8.880;2022-12-18T05:15:31;-7.50;99.90
65036;DHT22;51603;49.300;8.880;2022-12-18T05:17:58;-7.50;99.90
65036;DHT22;51603;49.300;8.880;2022-12-18T05:20:24;-7.50;99.90
65036;DHT22;51603;49.300;8.880;2022-12-18T05:22:50;-7.50;99.90
65036;DHT22;51603;49.300;8.880;2022-12-18T05:25:16;-7.50;99.90
65036;DHT22;51603;49.300;8.880;2022-12-18T05:27:41;-7.50;99.90
65036;DHT22;51603;49.300;8.880;2022-12-18T05:30:08;-7.50;99.90
65036;DHT22;51603;49.300;8.880;2022-12-18T05:32:34;-7.50;99.90
65036;DHT22;51603;49.300;8.880;2022-12-18T05:34:59;-7.60;99.90
65036;DHT22;51603;49.300;8.880;2022-12-18T05:37:25;-7.60;99.90
65036;DHT22;51603;49.300;8.880;2022-12-18T05:39:51;-7.60;99.90
65036;DHT22;51603;49.300;8.880;2022-12-18T05:42:16;-7.60;99.90
65036;DHT22;51603;49.300;8.880;2022-12-18T05:44:43;-7.60;99.90
65036;DHT22;51603;49.300;8.880;2022-12-18T05:47:08;-7.70;99.90
65036;DHT22;51603;49.300;8.880;2022-12-18T05:49:34;-7.60;99.90
65036;DHT22;51603;49.300;8.880;2022-12-18T05:51:59;-7.70;99.90
65036;DHT22;51603;49.300;8.880;2022-12-18T05:54:27;-7.70;99.90
65036;DHT22;51603;49.300;8.880;2022-12-18T05:56:53;-7.50;99.90
65036;DHT22;51603;49.300;8.880;2022-12-18T05:59:19;-7.70;99.90
65036;DHT22;51603;49.300;8.880;2022-12-18T06:01:45;-7.70;99.90
65036;DHT22;51603;49.300;8.880;2022-12-18T06:04:11;-7.70;99.90
65036;DHT22;51603;49.300;8.880;2022-12-18T06:06:37;-7.70;99.90
65036;DHT22;51603;49.300;8.880;2022-12-18T06:09:02;-7.70;99.90
65036;DHT22;51603;49.300;8.880;2022-12-18T06:11:34;-7.70;99.90
65036;DHT22;51603;49.300;8.880;2022-12-18T06:13:59;-7.80;99.90
65036;DHT22;51603;49.300;8.880;2022-12-18T06:16:26;-7.80;99.90
65036;DHT22;51603;49.300;8.880;2022-12-18T06:18:52;-7.80;99.90
65036;DHT22;51603;49.300;8.880;2022-12-18T06:21:18;-7.80;99.90
65036;DHT22;51603;49.300;8.880;2022-12-18T06:23:43;-7.80;99.90
65036;DHT22;51603;49.300;8.880;2022-12-18T06:26:11;-7.80;99.90
65036;DHT22;51603;49.300;8.880;2022-12-18T06:28:37;-7.90;99.90
65036;DHT22;51603;49.300;8.880;2022-12-18T06:31:03;-7.90;99.90
65036;DHT22;51603;49.300;8.880;2022-12-18T06:33:29;-7.90;99.90
65036;DHT22;51603;49.300;8.880;2022-12-18T06:36:06;-8.00;99.90
65036;DHT22;51603;49.300;8.880;2022-12-18T06:38:34;-8.00;99.90
65036;DHT22;51603;49.300;8.880;2022-12-18T06:40:59;-8.00;99.90
65036;DHT22;51603;49.300;8.880;2022-12-18T06:43:25;-7.90;99.90
65036;DHT22;51603;49.300;8.880;2022-12-18T06:45:51;-7.90;99.90
65036;DHT22;51603;49.300;8.880;2022-12-18T06:48:21;-7.90;99.90
65036;DHT22;51603;49.300;8.880;2022-12-18T06:50:46;-7.70;99.90
65036;DHT22;51603;49.300;8.880;2022-12-18T06:53:12;-7.90;99.90
65036;DHT22;51603;49.300;8.880;2022-12-18T06:55:38;-7.90;99.90
65036;DHT22;51603;49.300;8.880;2022-12-18T06:58:03;-7.90;99.90
65036;DHT22;51603;49.300;8.880;2022-12-18T07:00:29;-8.00;99.90
65036;DHT22;51603;49.300;8.880;2022-12-18T07:02:54;-7.90;99.90
65036;DHT22;51603;49.300;8.880;2022-12-18T07:05:20;-8.00;99.90
65036;DHT22;51603;49.300;8.880;2022-12-18T07:07:45;-8.00;99.90
65036;DHT22;51603;49.300;8.880;2022-12-18T07:10:11;-8.00;99.90
65036;DHT22;51603;49.300;8.880;2022-12-18T07:12:36;-8.00;99.90
65036;DHT22;51603;49.300;8.880;2022-12-18T07:15:02;-7.90;99.90
65036;DHT22;51603;49.300;8.880;2022-12-18T07:17:28;-7.90;99.90
65036;DHT22;51603;49.300;8.880;2022-12-18T07:19:54;-7.90;99.90
65036;DHT22;51603;49.300;8.880;2022-12-18T07:22:20;-8.00;99.90
65036;DHT22;51603;49.300;8.880;2022-12-18T07:24:46;-7.90;99.90
65036;DHT22;51603;49.300;8.880;2022-12-18T07:27:11;-7.90;99.90
65036;DHT22;51603;49.300;8.880;2022-12-18T07:29:37;-8.00;99.90
65036;DHT22;51603;49.300;8.880;2022-12-18T07:32:02;-8.00;99.90
65036;DHT22;51603;49.300;8.880;2022-12-18T07:34:28;-8.00;99.90
65036;DHT22;51603;49.300;8.880;2022-12-18T07:36:53;-8.00;99.90
65036;DHT22;51603;49.300;8.880;2022-12-18T07:39:19;-8.00;99.90
65036;DHT22;51603;49.300;8.880;2022-12-18T07:41:44;-8.00;99.90
65036;DHT22;51603;49.300;8.880;2022-12-18T07:44:30;-8.00;99.90
65036;DHT22;51603;49.300;8.880;2022-12-18T07:46:55;-7.90;99.90
65036;DHT22;51603;49.300;8.880;2022-12-18T07:49:21;-7.80;99.90
65036;DHT22;51603;49.300;8.880;2022-12-18T07:51:46;-8.00;99.90
65036;DHT22;51603;49.300;8.880;2022-12-18T08:04:20;-8.10;99.90
65036;DHT22;51603;49.300;8.880;2022-12-18T08:06:46;-8.00;99.90
65036;DHT22;51603;49.300;8.880;2022-12-18T08:09:12;-8.00;99.90
65036;DHT22;51603;49.300;8.880;2022-12-18T08:11:37;-8.00;99.90
65036;DHT22;51603;49.300;8.880;2022-12-18T08:14:03;-8.00;99.90
65036;DHT22;51603;49.300;8.880;2022-12-18T08:16:29;-8.00;99.90
65036;DHT22;51603;49.300;8.880;2022-12-18T08:18:55;-7.90;99.90
65036;DHT22;51603;49.300;8.880;2022-12-18T08:21:24;-7.70;99.90
65036;DHT22;51603;49.300;8.880;2022-12-18T08:23:51;-7.90;99.90
65036;DHT22;51603;49.300;8.880;2022-12-18T08:26:17;-7.90;99.90
65036;DHT22;51603;49.300;8.880;2022-12-18T08:28:43;-7.90;99.90
65036;DHT22;51603;49.300;8.880;2022-12-18T08:31:09;-7.90;99.90
65036;DHT22;51603;49.300;8.880;2022-12-18T08:33:36;-7.90;99.90
65036;DHT22;51603;49.300;8.880;2022-12-18T08:36:04;-7.90;99.90
65036;DHT22;51603;49.300;8.880;2022-12-18T08:38:30;-7.90;99.90
65036;DHT22;51603;49.300;8.880;2022-12-18T08:41:00;-7.70;99.90
65036;DHT22;51603;49.300;8.880;2022-12-18T08:43:26;-7.80;99.90
65036;DHT22;51603;49.300;8.880;2022-12-18T08:46:11;-7.70;99.90
65036;DHT22;51603;49.300;8.880;2022-12-18T08:48:37;-7.70;99.90
65036;DHT22;51603;49.300;8.880;2022-12-18T08:51:02;-7.60;99.90
65036;DHT22;51603;49.300;8.880;2022-12-18T08:53:28;-7.60;99.90
65036;DHT22;51603;49.300;8.880;2022-12-18T08:55:55;-7.60;99.90
65036;DHT22;51603;49.300;8.880;2022-12-18T08:58:21;-7.40;99.90
65036;DHT22;51603;49.300;8.880;2022-12-18T09:00:47;-7.50;99.90
65036;DHT22;51603;49.300;8.880;2022-12-18T09:03:13;-7.40;99.90
65036;DHT22;51603;49.300;8.880;2022-12-18T09:05:39;-7.40;99.90
65036;DHT22;51603;49.300;8.880;2022-12-18T09:08:05;-7.40;99.90
65036;DHT22;51603;49.300;8.880;2022-12-18T09:10:31;-7.20;99.90
65036;DHT22;51603;49.300;8.880;2022-12-18T09:12:57;-7.30;99.90
65036;DHT22;51603;49.300;8.880;2022-12-18T09:15:23;-7.20;99.90
65036;DHT22;51603;49.300;8.880;2022-12-18T09:17:48;-7.10;99.90
65036;DHT22;51603;49.300;8.880;2022-12-18T09:20:15;-7.20;99.90
65036;DHT22;51603;49.300;8.880;2022-12-18T09:22:41;-7.10;99.90
65036;DHT22;51603;49.300;8.880;2022-12-18T09:25:07;-7.00;99.90
65036;DHT22;51603;49.300;8.880;2022-12-18T10:10:41;-5.90;99.90
65036;DHT22;51603;49.300;8.880;2022-12-18T10:13:26;-5.80;99.90
65036;DHT22;51603;49.300;8.880;2022-12-18T10:18:57;-5.70;99.90
65036;DHT22;51603;49.300;8.880;2022-12-18T10:21:51;-5.70;99.90
65036;DHT22;51603;49.300;8.880;2022-12-18T10:27:15;-5.50;99.90
65036;DHT22;51603;49.300;8.880;2022-12-18T10:29:45;-5.50;99.90
65036;DHT22;51603;49.300;8.880;2022-12-18T10:32:26;-5.40;99.90
65036;DHT22;51603;49.300;8.880;2022-12-18T10:34:55;-5.40;99.90
65036;DHT22;51603;49.300;8.880;2022-12-18T10:37:24;-5.30;99.90
65036;DHT22;51603;49.300;8.880;2022-12-18T10:40:10;-5.30;99.90
65036;DHT22;51603;49.300;8.880;2022-12-18T10:42:36;-5.20;99.90
65036;DHT22;51603;49.300;8.880;2022-12-18T10:45:15;-5.20;99.90
65036;DHT22;51603;49.300;8.880;2022-12-18T10:47:46;-5.10;99.90
65036;DHT22;51603;49.300;8.880;2022-12-18T10:52:58;-4.90;99.90
65036;DHT22;51603;49.300;8.880;2022-12-18T10:55:29;-4.80;99.90
65036;DHT22;51603;49.300;8.880;2022-12-18T10:58:18;-4.80;99.90
65036;DHT22;51603;49.300;8.880;2022-12-18T11:06:23;-4.40;99.90
65036;DHT22;51603;49.300;8.880;2022-12-18T11:09:21;-4.40;99.90
65036;DHT22;51603;49.300;8.880;2022-12-18T11:11:52;-4.30;99.90
65036;DHT22;51603;49.300;8.880;2022-12-18T11:16:52;-4.20;99.90
65036;DHT22;51603;49.300;8.880;2022-12-18T11:21:50;-4.00;99.90
65036;DHT22;51603;49.300;8.880;2022-12-18T11:24:29;-3.90;99.90
65036;DHT22;51603;49.300;8.880;2022-12-18T11:26:58;-3.80;99.90
65036;DHT22;51603;49.300;8.880;2022-12-18T11:29:38;-3.80;99.90
65036;DHT22;51603;49.300;8.880;2022-12-18T11:32:23;-3.70;99.90
65036;DHT22;51603;49.300;8.880;2022-12-18T11:35:04;-3.70;99.90
65036;DHT22;51603;49.300;8.880;2022-12-18T11:37:36;-3.60;99.90
65036;DHT22;51603;49.300;8.880;2022-12-18T11:40:49;-3.60;99.90
65036;DHT22;51603;49.300;8.880;2022-12-18T11:43:01;-3.50;99.90
65036;DHT22;51603;49.300;8.880;2022-12-18T11:45:30;-3.50;99.90
65036;DHT22;51603;49.300;8.880;2022-12-18T11:50:49;-3.40;99.90
65036;DHT22;51603;49.300;8.880;2022-12-18T11:53:16;-3.30;99.90
65036;DHT22;51603;49.300;8.880;2022-12-18T12:04:27;-3.10;99.90
65036;DHT22;51603;49.300;8.880;2022-12-18T12:07:17;-3.10;99.90
65036;DHT22;51603;49.300;8.880;2022-12-18T12:24:29;-2.80;99.90
65036;DHT22;51603;49.300;8.880;2022-12-18T12:27:45;-2.80;99.90
65036;DHT22;51603;49.300;8.880;2022-12-18T12:36:27;-2.60;99.90
65036;DHT22;51603;49.300;8.880;2022-12-18T12:38:57;-2.60;99.90
65036;DHT22;51603;49.300;8.880;2022-12-18T12:41:25;-2.60;99.90
65036;DHT22;51603;49.300;8.880;2022-12-18T12:44:17;-2.60;99.90
65036;DHT22;51603;49.300;8.880;2022-12-18T12:46:45;-2.60;99.90
65036;DHT22;51603;49.300;8.880;2022-12-18T12:49:31;-2.50;99.90
65036;DHT22;51603;49.300;8.880;2022-12-18T12:52:12;-2.60;99.90
65036;DHT22;51603;49.300;8.880;2022-12-18T12:54:40;-2.50;99.90
65036;DHT22;51603;49.300;8.880;2022-12-18T12:57:11;-2.50;99.90
65036;DHT22;51603;49.300;8.880;2022-12-18T13:00:09;-2.50;99.90
65036;DHT22;51603;49.300;8.880;2022-12-18T13:02:57;-2.50;99.90
65036;DHT22;51603;49.300;8.880;2022-12-18T13:08:29;-2.40;99.90
65036;DHT22;51603;49.300;8.880;2022-12-18T13:10:57;-2.40;99.90
65036;DHT22;51603;49.300;8.880;2022-12-18T13:13:51;-2.40;99.90
65036;DHT22;51603;49.300;8.880;2022-12-18T13:16:21;-2.40;99.90
65036;DHT22;51603;49.300;8.880;2022-12-18T13:18:55;-2.40;99.90
65036;DHT22;51603;49.300;8.880;2022-12-18T13:21:33;-2.40;99.90
65036;DHT22;51603;49.300;8.880;2022-12-18T13:24:24;-2.40;99.90
65036;DHT22;51603;49.300;8.880;2022-12-18T13:26:50;-2.40;99.90
65036;DHT22;51603;49.300;8.880;2022-12-18T13:29:43;-2.40;99.90
65036;DHT22;51603;49.300;8.880;2022-12-18T13:32:23;-2.40;99.90
65036;DHT22;51603;49.300;8.880;2022-12-18T13:38:00;-2.40;99.90
65036;DHT22;51603;49.300;8.880;2022-12-18T13:46:18;-2.40;99.90
65036;DHT22;51603;49.300;8.880;2022-12-18T13:49:14;-2.40;99.90
65036;DHT22;51603;49.300;8.880;2022-12-18T13:51:48;-2.40;99.90
65036;DHT22;51603;49.300;8.880;2022-12-18T13:54:35;-2.40;99.90
65036;DHT22;51603;49.300;8.880;2022-12-18T13:57:03;-2.40;99.90
65036;DHT22;51603;49.300;8.880;2022-12-18T13:59:37;-2.40;99.90
65036;DHT22;51603;49.300;8.880;2022-12-18T14:02:19;-2.40;99.90
65036;DHT22;51603;49.300;8.880;2022-12-18T14:04:47;-2.40;99.90
65036;DHT22;51603;49.300;8.880;2022-12-18T14:07:16;-2.50;99.90
65036;DHT22;51603;49.300;8.880;2022-12-18T14:09:44;-2.50;99.90
65036;DHT22;51603;49.300;8.880;2022-12-18T14:12:23;-2.50;99.90
65036;DHT22;51603;49.300;8.880;2022-12-18T14:17:58;-2.60;99.90
65036;DHT22;51603;49.300;8.880;2022-12-18T14:20:26;-2.60;99.90
65036;DHT22;51603;49.300;8.880;2022-12-18T14:22:52;-2.60;99.90
65036;DHT22;51603;49.300;8.880;2022-12-18T14:25:24;-2.60;99.90
65036;DHT22;51603;49.300;8.880;2022-12-18T14:27:52;-2.70;99.90
65036;DHT22;51603;49.300;8.880;2022-12-18T14:30:35;-2.70;99.90
65036;DHT22;51603;49.300;8.880;2022-12-18T14:33:02;-2.70;99.90
65036;DHT22;51603;49.300;8.880;2022-12-18T14:35:28;-2.80;99.90
65036;DHT22;51603;49.300;8.880;2022-12-18T14:38:18;-2.80;99.90
65036;DHT22;51603;49.300;8.880;2022-12-18T14:40:44;-2.80;99.90
65036;DHT22;51603;49.300;8.880;2022-12-18T14:43:13;-2.90;99.90
65036;DHT22;51603;49.300;8.880;2022-12-18T14:45:45;-2.90;99.90
65036;DHT22;51603;49.300;8.880;2022-12-18T14:48:14;-2.90;99.90
65036;DHT22;51603;49.300;8.880;2022-12-18T14:50:40;-2.90;99.90
65036;DHT22;51603;49.300;8.880;2022-12-18T14:53:06;-2.90;99.90
65036;DHT22;51603;49.300;8.880;2022-12-18T14:55:46;-3.00;99.90
65036;DHT22;51603;49.300;8.880;2022-12-18T14:58:14;-3.00;99.90
65036;DHT22;51603;49.300;8.880;2022-12-18T15:00:42;-3.00;99.90
65036;DHT22;51603;49.300;8.880;2022-12-18T15:03:08;-3.00;99.90
65036;DHT22;51603;49.300;8.880;2022-12-18T15:05:35;-3.10;99.90
65036;DHT22;51603;49.300;8.880;2022-12-18T15:08:01;-3.10;99.90
65036;DHT22;51603;49.300;8.880;2022-12-18T15:10:33;-3.10;99.90
65036;DHT22;51603;49.300;8.880;2022-12-18T15:18:10;-3.20;99.90
65036;DHT22;51603;49.300;8.880;2022-12-18T15:20:52;-3.30;99.90
65036;DHT22;51603;49.300;8.880;2022-12-18T15:25:58;-3.30;99.90
65036;DHT22;51603;49.300;8.880;2022-12-18T15:28:27;-3.30;99.90
65036;DHT22;51603;49.300;8.880;2022-12-18T15:31:03;-3.40;99.90
65036;DHT22;51603;49.300;8.880;2022-12-18T15:33:32;-3.40;99.90
65036;DHT22;51603;49.300;8.880;2022-12-18T15:36:00;-3.50;99.90
65036;DHT22;51603;49.300;8.880;2022-12-18T15:38:26;-3.50;99.90
65036;DHT22;51603;49.300;8.880;2022-12-18T15:40:53;-3.50;99.90
65036;DHT22;51603;49.300;8.880;2022-12-18T15:43:21;-3.50;99.90
65036;DHT22;51603;49.300;8.880;2022-12-18T15:46:09;-3.60;99.90
65036;DHT22;51603;49.300;8.880;2022-12-18T15:48:40;-3.60;99.90
65036;DHT22;51603;49.300;8.880;2022-12-18T15:51:28;-3.60;99.90
65036;DHT22;51603;49.300;8.880;2022-12-18T15:53:56;-3.70;99.90
65036;DHT22;51603;49.300;8.880;2022-12-18T15:56:23;-3.70;99.90
65036;DHT22;51603;49.300;8.880;2022-12-18T15:59:20;-3.70;99.90
65036;DHT22;51603;49.300;8.880;2022-12-18T16:01:48;-3.70;99.90
65036;DHT22;51603;49.300;8.880;2022-12-18T16:04:15;-3.70;99.90
65036;DHT22;51603;49.300;8.880;2022-12-18T16:06:42;-3.70;99.90
65036;DHT22;51603;49.300;8.880;2022-12-18T16:09:08;-3.70;99.90
65036;DHT22;51603;49.300;8.880;2022-12-18T16:11:36;-3.70;99.90
65036;DHT22;51603;49.300;8.880;2022-12-18T16:14:22;-3.70;99.90
65036;DHT22;51603;49.300;8.880;2022-12-18T16:16:51;-3.80;99.90
65036;DHT22;51603;49.300;8.880;2022-12-18T16:19:17;-3.80;99.90
65036;DHT22;51603;49.300;8.880;2022-12-18T16:21:43;-3.80;99.90
65036;DHT22;51603;49.300;8.880;2022-12-18T16:24:16;-3.80;99.90
65036;DHT22;51603;49.300;8.880;2022-12-18T16:26:43;-3.70;99.90
65036;DHT22;51603;49.300;8.880;2022-12-18T16:29:09;-3.70;99.90
65036;DHT22;51603;49.300;8.880;2022-12-18T16:31:35;-3.70;99.90
65036;DHT22;51603;49.300;8.880;2022-12-18T16:34:27;-3.70;99.90
65036;DHT22;51603;49.300;8.880;2022-12-18T16:36:58;-3.70;99.90
65036;DHT22;51603;49.300;8.880;2022-12-18T16:39:25;-3.70;99.90
65036;DHT22;51603;49.300;8.880;2022-12-18T16:41:51;-3.70;99.90
65036;DHT22;51603;49.300;8.880;2022-12-18T16:44:17;-3.70;99.90
65036;DHT22;51603;49.300;8.880;2022-12-18T16:46:43;-3.70;99.90
65036;DHT22;51603;49.300;8.880;2022-12-18T16:49:11;-3.70;99.90
65036;DHT22;51603;49.300;8.880;2022-12-18T16:51:37;-3.70;99.90
65036;DHT22;51603;49.300;8.880;2022-12-18T16:54:03;-3.70;99.90
65036;DHT22;51603;49.300;8.880;2022-12-18T16:56:30;-3.70;99.90
65036;DHT22;51603;49.300;8.880;2022-12-18T16:58:58;-3.70;99.90
65036;DHT22;51603;49.300;8.880;2022-12-18T17:01:25;-3.70;99.90
65036;DHT22;51603;49.300;8.880;2022-12-18T17:03:54;-3.70;99.90
65036;DHT22;51603;49.300;8.880;2022-12-18T17:06:21;-3.70;99.90
65036;DHT22;51603;49.300;8.880;2022-12-18T17:08:47;-3.70;99.90
65036;DHT22;51603;49.300;8.880;2022-12-18T17:11:13;-3.70;99.90
65036;DHT22;51603;49.300;8.880;2022-12-18T17:13:39;-3.70;99.90
65036;DHT22;51603;49.300;8.880;2022-12-18T17:16:06;-3.70;99.90
65036;DHT22;51603;49.300;8.880;2022-12-18T17:18:32;-3.70;99.90
65036;DHT22;51603;49.300;8.880;2022-12-18T17:20:59;-3.70;99.90
65036;DHT22;51603;49.300;8.880;2022-12-18T17:23:26;-3.60;99.90
65036;DHT22;51603;49.300;8.880;2022-12-18T17:25:59;-3.60;99.90
65036;DHT22;51603;49.300;8.880;2022-12-18T17:28:26;-3.60;99.90
65036;DHT22;51603;49.300;8.880;2022-12-18T17:30:55;-3.60;99.90
65036;DHT22;51603;49.300;8.880;2022-12-18T17:33:22;-3.60;99.90
65036;DHT22;51603;49.300;8.880;2022-12-18T17:35:48;-3.60;99.90
65036;DHT22;51603;49.300;8.880;2022-12-18T17:38:14;-3.60;99.90
65036;DHT22;51603;49.300;8.880;2022-12-18T17:40:39;-3.60;99.90
65036;DHT22;51603;49.300;8.880;2022-12-18T17:43:06;-3.60;99.90
65036;DHT22;51603;49.300;8.880;2022-12-18T17:45:35;-3.60;99.90
65036;DHT22;51603;49.300;8.880;2022-12-18T17:48:01;-3.60;99.90
65036;DHT22;51603;49.300;8.880;2022-12-18T17:50:27;-3.60;99.90
65036;DHT22;51603;49.300;8.880;2022-12-18T17:52:56;-3.60;99.90
65036;DHT22;51603;49.300;8.880;2022-12-18T17:55:22;-3.60;99.90
65036;DHT22;51603;49.300;8.880;2022-12-18T17:57:48;-3.60;99.90
65036;DHT22;51603;49.300;8.880;2022-12-18T18:00:14;-3.60;99.90
65036;DHT22;51603;49.300;8.880;2022-12-18T18:02:40;-3.70;99.90
65036;DHT22;51603;49.300;8.880;2022-12-18T18:05:06;-3.70;99.90
65036;DHT22;51603;49.300;8.880;2022-12-18T18:07:31;-3.70;99.90
65036;DHT22;51603;49.300;8.880;2022-12-18T18:09:57;-3.70;99.90
65036;DHT22;51603;49.300;8.880;2022-12-18T18:12:22;-3.70;99.90
65036;DHT22;51603;49.300;8.880;2022-12-18T18:15:07;-3.70;99.90